createdAt,value
2022-11-01T00:02:11.502Z,25.57
2022-11-01T00:04:38.672Z,25.63
2022-11-01T00:07:06.755Z,25.00
2022-11-01T00:09:33.946Z,25.33
2022-11-01T00:12:01.170Z,26.33
2022-11-01T00:14:28.318Z,26.77
2022-11-01T00:16:55.724Z,26.93
2022-11-01T00:19:22.982Z,27.43
2022-11-01T00:21:50.450Z,26.97
2022-11-01T00:24:17.587Z,28.83
2022-11-01T00:26:44.882Z,28.17
2022-11-01T00:29:12.888Z,27.40
2022-11-01T00:31:40.187Z,27.73
2022-11-01T00:34:07.262Z,28.77
2022-11-01T00:36:35.554Z,26.33
2022-11-01T00:39:03.903Z,27.03
2022-11-01T00:41:31.195Z,26.73
2022-11-01T00:43:58.735Z,26.13
2022-11-01T00:46:26.166Z,26.03
2022-11-01T00:48:53.302Z,26.77
2022-11-01T00:51:20.568Z,26.20
2022-11-01T00:53:47.800Z,27.23
2022-11-01T00:56:15.081Z,27.73
2022-11-01T00:58:42.421Z,27.57
2022-11-01T01:01:09.902Z,26.97
2022-11-01T01:03:37.355Z,26.47
2022-11-01T01:06:05.289Z,26.37
2022-11-01T01:08:32.645Z,26.63
2022-11-01T01:10:59.969Z,26.00
2022-11-01T01:13:27.459Z,26.43
2022-11-01T01:15:54.861Z,26.57
2022-11-01T01:18:22.177Z,26.43
2022-11-01T01:20:49.348Z,27.33
2022-11-01T01:23:16.799Z,26.87
2022-11-01T01:25:44.086Z,27.27
2022-11-01T01:28:11.557Z,27.10
2022-11-01T01:30:41.910Z,26.47
2022-11-01T01:33:10.083Z,27.60
2022-11-01T01:35:39.055Z,26.83
2022-11-01T01:38:07.754Z,28.03
2022-11-01T01:40:35.586Z,27.97
2022-11-01T01:43:02.987Z,26.57
2022-11-01T01:45:39.114Z,27.73
2022-11-01T01:48:20.198Z,28.10
2022-11-01T01:51:04.216Z,28.20
2022-11-01T01:53:33.900Z,27.77
2022-11-01T01:56:09.991Z,27.97
2022-11-01T01:58:52.421Z,27.10
2022-11-01T02:01:19.722Z,27.50
2022-11-01T02:03:47.686Z,26.53
2022-11-01T02:06:20.823Z,27.03
2022-11-01T02:09:00.451Z,27.20
2022-11-01T02:11:27.995Z,26.40
2022-11-01T02:13:55.949Z,27.53
2022-11-01T02:16:55.493Z,28.37
2022-11-01T02:19:47.393Z,28.03
2022-11-01T02:22:39.366Z,28.77
2022-11-01T02:25:40.129Z,26.43
2022-11-01T02:28:53.782Z,27.20
2022-11-01T02:31:39.876Z,26.13
2022-11-01T02:34:29.593Z,26.47
2022-11-01T02:37:06.767Z,26.10
2022-11-01T02:39:36.901Z,26.23
2022-11-01T02:42:37.111Z,27.47
2022-11-01T02:45:29.385Z,29.03
2022-11-01T02:48:01.508Z,28.43
2022-11-01T02:50:36.756Z,29.50
2022-11-01T02:53:05.027Z,28.43
2022-11-01T02:55:34.232Z,27.67
2022-11-01T02:58:12.864Z,28.47
2022-11-01T03:00:40.950Z,29.30
2022-11-01T03:03:24.286Z,27.50
2022-11-01T03:06:00.285Z,31.13
2022-11-01T03:08:37.572Z,29.57
2022-11-01T03:11:13.432Z,30.70
2022-11-01T03:14:08.258Z,29.10
2022-11-01T03:17:02.565Z,30.33
2022-11-01T03:19:47.010Z,29.10
2022-11-01T03:22:46.121Z,30.13
2022-11-01T03:25:53.759Z,30.57
2022-11-01T03:28:24.698Z,30.10
2022-11-01T03:31:07.579Z,31.87
2022-11-01T03:33:47.879Z,32.73
2022-11-01T03:36:20.477Z,33.80
2022-11-01T03:38:56.660Z,33.87
2022-11-01T03:41:25.888Z,33.87
2022-11-01T03:43:54.112Z,32.97
2022-11-01T03:46:21.669Z,32.57
2022-11-01T03:48:48.951Z,34.67
2022-11-01T03:51:16.174Z,31.13
2022-11-01T03:53:43.452Z,32.10
2022-11-01T03:56:10.718Z,32.10
2022-11-01T03:58:44.940Z,31.17
2022-11-01T04:01:15.888Z,30.03
2022-11-01T04:03:44.370Z,32.67
2022-11-01T04:06:11.638Z,31.03
2022-11-01T04:08:38.792Z,30.50
2022-11-01T04:11:06.310Z,30.27
2022-11-01T04:13:33.501Z,32.63
2022-11-01T04:16:19.009Z,31.00
2022-11-01T04:19:04.505Z,32.93
2022-11-01T04:21:32.344Z,31.97
2022-11-01T04:23:59.744Z,32.13
2022-11-01T04:26:27.046Z,32.20
2022-11-01T04:28:57.195Z,33.13
2022-11-01T04:31:29.677Z,31.77
2022-11-01T04:33:58.633Z,31.77
2022-11-01T04:36:26.603Z,33.37
2022-11-01T04:38:56.249Z,31.47
2022-11-01T04:41:29.181Z,32.00
2022-11-01T04:43:59.053Z,32.27
2022-11-01T04:46:29.449Z,33.10
2022-11-01T04:48:56.662Z,33.50
2022-11-01T04:51:23.745Z,34.90
2022-11-01T04:53:50.980Z,33.23
2022-11-01T04:56:18.205Z,33.87
2022-11-01T04:58:46.736Z,34.13
2022-11-01T05:01:15.076Z,33.50
2022-11-01T05:03:43.423Z,35.13
2022-11-01T05:06:10.678Z,34.40
2022-11-01T05:08:38.995Z,33.53
2022-11-01T05:11:06.587Z,33.60
2022-11-01T05:13:33.785Z,34.77
2022-11-01T05:16:20.951Z,34.10
2022-11-01T05:18:49.242Z,33.77
2022-11-01T05:21:17.050Z,33.90
2022-11-01T05:23:44.631Z,33.83
2022-11-01T05:26:12.063Z,34.37
2022-11-01T05:28:39.449Z,34.57
2022-11-01T05:31:06.742Z,33.40
2022-11-01T05:33:34.055Z,35.00
2022-11-01T05:36:02.060Z,34.30
2022-11-01T05:38:29.514Z,33.03
2022-11-01T05:40:56.840Z,31.83
2022-11-01T05:43:24.461Z,31.67
2022-11-01T05:45:51.890Z,32.17
2022-11-01T05:48:19.420Z,31.77
2022-11-01T05:50:47.179Z,30.17
2022-11-01T05:53:14.839Z,31.53
2022-11-01T05:55:42.104Z,33.03
2022-11-01T05:58:09.596Z,30.97
2022-11-01T06:00:37.250Z,32.07
2022-11-01T06:03:05.905Z,30.67
2022-11-01T06:05:34.533Z,30.03
2022-11-01T06:08:04.372Z,31.00
2022-11-01T06:10:33.099Z,30.90
2022-11-01T06:13:00.743Z,32.03
2022-11-01T06:15:28.359Z,30.83
2022-11-01T06:17:58.447Z,32.73
2022-11-01T06:20:30.990Z,31.83
2022-11-01T06:22:59.696Z,32.03
2022-11-01T06:25:27.809Z,33.00
2022-11-01T06:27:55.436Z,32.17
2022-11-01T06:30:22.843Z,32.07
2022-11-01T06:32:50.214Z,30.50
2022-11-01T06:35:17.602Z,31.83
2022-11-01T06:37:45.131Z,31.73
2022-11-01T06:40:13.186Z,32.57
2022-11-01T06:42:45.517Z,31.20
2022-11-01T06:45:15.203Z,32.37
2022-11-01T06:47:47.647Z,30.70
2022-11-01T06:50:15.180Z,32.40
2022-11-01T06:52:42.707Z,32.57
2022-11-01T06:55:10.289Z,32.20
2022-11-01T06:57:37.931Z,32.43
2022-11-01T07:00:06.902Z,33.07
2022-11-01T07:02:34.408Z,33.37
2022-11-01T07:05:02.057Z,31.30
2022-11-01T07:07:29.474Z,31.90
2022-11-01T07:09:57.422Z,33.83
2022-11-01T07:12:24.758Z,32.27
2022-11-01T07:14:52.157Z,32.67
2022-11-01T07:17:19.571Z,33.27
2022-11-01T07:19:47.060Z,34.00
2022-11-01T07:22:14.923Z,32.67
2022-11-01T07:24:42.187Z,33.00
2022-11-01T07:27:09.579Z,32.07
2022-11-01T07:29:36.957Z,31.43
2022-11-01T07:32:05.006Z,33.30
2022-11-01T07:34:32.642Z,32.33
2022-11-01T07:37:00.477Z,32.77
2022-11-01T07:39:27.924Z,31.10
2022-11-01T07:41:56.034Z,33.97
2022-11-01T07:44:23.582Z,33.00
2022-11-01T07:46:51.287Z,33.60
2022-11-01T07:49:18.676Z,33.73
2022-11-01T07:51:46.263Z,32.50
2022-11-01T07:54:14.071Z,33.40
2022-11-01T07:56:41.485Z,31.03
2022-11-01T07:59:09.646Z,32.83
2022-11-01T08:01:37.315Z,31.97
2022-11-01T08:04:04.925Z,32.27
2022-11-01T08:06:32.442Z,32.27
2022-11-01T08:08:59.937Z,33.33
2022-11-01T08:11:28.709Z,32.97
2022-11-01T08:14:02.846Z,32.47
2022-11-01T08:16:32.836Z,33.50
2022-11-01T08:19:00.349Z,31.57
2022-11-01T08:21:27.763Z,34.07
2022-11-01T08:23:55.061Z,32.57
2022-11-01T08:26:22.475Z,32.40
2022-11-01T08:28:50.987Z,34.63
2022-11-01T08:31:18.694Z,31.60
2022-11-01T08:33:46.735Z,31.63
2022-11-01T08:36:14.761Z,31.57
2022-11-01T08:38:42.225Z,31.77
2022-11-01T08:41:09.742Z,32.03
2022-11-01T08:43:40.499Z,32.60
2022-11-01T08:46:10.694Z,31.17
2022-11-01T08:48:38.122Z,32.47
2022-11-01T08:51:05.583Z,32.73
2022-11-01T08:53:33.018Z,32.40
2022-11-01T08:56:00.357Z,31.20
2022-11-01T08:58:27.741Z,31.63
2022-11-01T09:00:55.131Z,32.60
2022-11-01T09:03:22.584Z,31.50
2022-11-01T09:05:49.960Z,33.33
2022-11-01T09:08:17.383Z,32.87
2022-11-01T09:10:44.826Z,33.07
2022-11-01T09:13:12.377Z,34.03
2022-11-01T09:15:39.774Z,36.10
2022-11-01T09:18:08.289Z,36.40
2022-11-01T09:20:35.824Z,37.57
2022-11-01T09:23:03.669Z,38.10
2022-11-01T09:25:31.376Z,39.50
2022-11-01T09:27:58.834Z,39.83
2022-11-01T09:30:27.139Z,42.37
2022-11-01T09:32:54.636Z,40.20
2022-11-01T09:35:21.991Z,40.00
2022-11-01T09:37:49.322Z,40.90
2022-11-01T09:40:16.871Z,40.73
2022-11-01T09:42:46.045Z,38.33
2022-11-01T09:45:23.916Z,41.13
2022-11-01T09:47:55.038Z,39.27
2022-11-01T09:50:34.432Z,37.77
2022-11-01T09:53:07.941Z,36.87
2022-11-01T09:56:12.419Z,36.87
2022-11-01T09:59:08.494Z,38.80
2022-11-01T10:01:48.997Z,36.57
2022-11-01T10:04:50.682Z,36.00
2022-11-01T10:07:48.770Z,34.23
2022-11-01T10:10:24.375Z,32.80
2022-11-01T10:13:23.805Z,29.70
2022-11-01T10:16:19.089Z,29.97
2022-11-01T10:19:00.205Z,29.50
2022-11-01T10:21:31.069Z,28.10
2022-11-01T10:24:03.223Z,26.90
2022-11-01T10:26:31.590Z,28.27
2022-11-01T10:29:18.614Z,28.90
2022-11-01T10:31:50.523Z,28.73
2022-11-01T10:34:34.926Z,28.20
2022-11-01T10:37:24.531Z,27.77
2022-11-01T10:40:09.983Z,26.83
2022-11-01T10:42:37.566Z,26.63
2022-11-01T10:45:15.093Z,25.97
2022-11-01T10:47:43.727Z,23.90
2022-11-01T10:50:18.395Z,24.67
2022-11-01T10:53:02.226Z,23.97
2022-11-01T10:55:58.983Z,23.07
2022-11-01T10:59:02.256Z,23.50
2022-11-01T11:01:42.806Z,23.57
2022-11-01T11:04:21.216Z,22.50
2022-11-01T11:06:48.833Z,21.77
2022-11-01T11:09:34.909Z,21.17
2022-11-01T11:12:15.151Z,21.83
2022-11-01T11:14:44.684Z,22.43
2022-11-01T11:17:22.324Z,20.73
2022-11-01T11:19:53.742Z,19.73
2022-11-01T11:22:23.201Z,19.20
2022-11-01T11:24:56.236Z,19.40
2022-11-01T11:27:28.836Z,18.20
2022-11-01T11:30:01.494Z,19.60
2022-11-01T11:32:31.699Z,17.00
2022-11-01T11:35:13.880Z,17.37
2022-11-01T11:37:55.081Z,17.33
2022-11-01T11:40:28.466Z,17.13
2022-11-01T11:43:33.201Z,18.03
2022-11-01T11:46:07.986Z,16.80
2022-11-01T11:49:00.688Z,16.47
2022-11-01T11:51:31.010Z,14.97
2022-11-01T11:54:20.114Z,13.77
2022-11-01T11:56:52.053Z,14.47
2022-11-01T11:59:32.354Z,12.80
2022-11-01T12:02:08.070Z,12.80
2022-11-01T12:04:47.097Z,13.73
2022-11-01T12:07:24.600Z,13.57
2022-11-01T12:09:52.296Z,13.63
2022-11-01T12:12:26.583Z,13.50
2022-11-01T12:15:00.141Z,13.03
2022-11-01T12:17:46.278Z,14.13
2022-11-01T12:20:20.135Z,13.40
2022-11-01T12:23:11.484Z,13.90
2022-11-01T12:25:41.838Z,12.97
2022-11-01T12:28:55.664Z,14.23
2022-11-01T12:31:25.487Z,14.07
2022-11-01T12:34:26.733Z,14.03
2022-11-01T12:37:13.957Z,14.50
2022-11-01T12:39:58.722Z,14.67
2022-11-01T12:42:41.552Z,14.40
2022-11-01T12:45:25.633Z,12.37
2022-11-01T12:48:03.089Z,13.53
2022-11-01T12:51:23.150Z,12.70
2022-11-01T12:54:27.588Z,12.53
2022-11-01T12:56:56.918Z,12.90
2022-11-01T12:59:33.172Z,12.40
2022-11-01T13:02:48.329Z,10.90
2022-11-01T13:05:34.029Z,10.83
2022-11-01T13:08:14.214Z,9.13
2022-11-01T13:10:46.468Z,8.70
2022-11-01T13:13:25.618Z,8.40
2022-11-01T13:16:17.668Z,8.67
2022-11-01T13:19:30.163Z,7.20
2022-11-01T13:22:20.169Z,7.77
2022-11-01T13:25:16.456Z,7.23
2022-11-01T13:28:11.051Z,7.80
2022-11-01T13:30:46.588Z,7.70
2022-11-01T13:33:29.462Z,6.60
2022-11-01T13:36:06.554Z,6.57
2022-11-01T13:38:49.291Z,7.30
2022-11-01T13:41:41.314Z,6.80
2022-11-01T13:44:44.523Z,6.80
2022-11-01T13:47:23.987Z,5.90
2022-11-01T13:50:05.306Z,5.03
2022-11-01T13:52:34.855Z,5.70
2022-11-01T13:55:28.835Z,4.70
2022-11-01T13:57:56.583Z,4.23
2022-11-01T14:00:43.582Z,5.53
2022-11-01T14:03:32.798Z,4.33
2022-11-01T14:06:09.534Z,5.13
2022-11-01T14:08:47.109Z,4.70
2022-11-01T14:11:46.153Z,5.23
2022-11-01T14:14:31.906Z,5.33
2022-11-01T14:17:56.030Z,3.73
2022-11-01T14:20:26.495Z,3.37
2022-11-01T14:22:56.353Z,3.10
2022-11-01T14:25:23.720Z,3.67
2022-11-01T14:28:21.114Z,3.63
2022-11-01T14:30:50.505Z,3.33
2022-11-01T14:33:20.834Z,3.67
2022-11-01T14:35:57.364Z,3.00
2022-11-01T14:38:44.800Z,2.77
2022-11-01T14:41:14.286Z,3.13
2022-11-01T14:43:48.374Z,3.47
2022-11-01T14:46:25.828Z,2.17
2022-11-01T14:49:07.680Z,2.10
2022-11-01T14:51:46.304Z,3.50
2022-11-01T14:54:32.158Z,2.57
2022-11-01T14:56:59.846Z,2.77
2022-11-01T14:59:33.986Z,2.10
2022-11-01T15:02:07.531Z,2.47
2022-11-01T15:04:46.517Z,1.90
2022-11-01T15:07:34.965Z,1.70
2022-11-01T15:10:05.536Z,2.03
2022-11-01T15:12:48.131Z,1.93
2022-11-01T15:15:25.342Z,2.10
2022-11-01T15:17:58.170Z,14.13
2022-11-01T15:20:38.641Z,1.80
2022-11-01T15:23:11.462Z,1.80
2022-11-01T15:25:40.845Z,1.90
2022-11-01T15:28:08.365Z,2.27
2022-11-01T15:30:35.897Z,2.20
2022-11-01T15:33:28.153Z,2.10
2022-11-01T15:36:01.516Z,2.13
2022-11-01T15:38:33.392Z,2.30
2022-11-01T15:41:23.616Z,3.37
2022-11-01T15:43:57.295Z,2.30
2022-11-01T15:46:30.528Z,3.20
2022-11-01T15:49:05.847Z,2.63
2022-11-01T15:51:46.744Z,2.53
2022-11-01T15:54:36.259Z,2.83
2022-11-01T15:57:29.747Z,2.30
2022-11-01T16:00:19.064Z,3.17
2022-11-01T16:03:18.552Z,2.10
2022-11-01T16:06:02.056Z,2.03
2022-11-01T16:08:35.511Z,1.70
2022-11-01T16:11:03.461Z,2.10
2022-11-01T16:13:33.380Z,2.43
2022-11-01T16:16:10.855Z,1.90
2022-11-01T16:18:41.715Z,2.00
2022-11-01T16:21:29.021Z,2.70
2022-11-01T16:24:20.255Z,2.83
2022-11-01T16:27:03.740Z,2.50
2022-11-01T16:29:52.063Z,2.37
2022-11-01T16:32:25.768Z,2.80
2022-11-01T16:34:55.520Z,2.43
2022-11-01T16:37:26.938Z,2.33
2022-11-01T16:39:54.645Z,2.40
2022-11-01T16:42:23.168Z,1.87
2022-11-01T16:44:55.687Z,2.03
2022-11-01T16:47:23.872Z,2.40
2022-11-01T16:49:56.612Z,2.10
2022-11-01T16:52:24.012Z,2.33
2022-11-01T16:54:51.777Z,2.07
2022-11-01T16:57:29.064Z,1.80
2022-11-01T16:59:57.767Z,1.70
2022-11-01T17:02:29.780Z,2.00
2022-11-01T17:05:13.249Z,1.90
2022-11-01T17:07:40.799Z,1.90
2022-11-01T17:10:21.371Z,1.77
2022-11-01T17:12:49.230Z,2.03
2022-11-01T17:15:17.317Z,1.80
2022-11-01T17:17:47.973Z,2.00
2022-11-01T17:20:24.811Z,2.03
2022-11-01T17:22:55.127Z,2.10
2022-11-01T17:25:28.338Z,2.20
2022-11-01T17:27:56.534Z,2.60
2022-11-01T17:30:24.395Z,2.10
2022-11-01T17:32:51.959Z,2.70
2022-11-01T17:35:22.838Z,3.07
2022-11-01T17:37:55.625Z,3.07
2022-11-01T17:40:28.383Z,2.50
2022-11-01T17:42:56.113Z,2.80
2022-11-01T17:45:23.777Z,2.13
2022-11-01T17:47:55.122Z,2.37
2022-11-01T17:50:25.129Z,2.43
2022-11-01T17:52:52.972Z,2.17
2022-11-01T17:55:20.681Z,1.83
2022-11-01T17:57:48.951Z,2.10
2022-11-01T18:00:17.288Z,2.30
2022-11-01T18:02:44.695Z,2.10
2022-11-01T18:05:13.900Z,2.33
2022-11-01T18:07:44.885Z,2.60
2022-11-01T18:11:05.043Z,2.20
2022-11-01T18:14:03.714Z,3.33
2022-11-01T18:17:01.756Z,3.03
2022-11-01T18:19:38.072Z,2.20
2022-11-01T18:22:39.587Z,2.17
2022-11-01T18:25:31.507Z,2.30
2022-11-01T18:28:01.344Z,2.33
2022-11-01T18:30:30.569Z,2.10
2022-11-01T18:33:50.923Z,2.77
2022-11-01T18:36:23.584Z,2.20
2022-11-01T18:39:22.142Z,2.00
2022-11-01T18:41:51.022Z,2.30
2022-11-01T18:44:19.539Z,2.50
2022-11-01T18:47:15.801Z,2.40
2022-11-01T18:49:43.941Z,2.07
2022-11-01T18:52:17.797Z,2.70
2022-11-01T18:54:56.691Z,2.10
2022-11-01T18:57:24.794Z,2.20
2022-11-01T18:59:53.862Z,2.17
2022-11-01T19:02:27.053Z,2.40
2022-11-01T19:05:14.324Z,2.30
2022-11-01T19:08:09.157Z,1.87
2022-11-01T19:10:30.171Z,2.17
2022-11-01T19:12:57.751Z,2.50
2022-11-01T19:15:28.252Z,2.73
2022-11-01T19:18:02.691Z,2.40
2022-11-01T19:20:47.293Z,3.57
2022-11-01T19:23:42.160Z,2.97
2022-11-01T19:26:30.161Z,3.30
2022-11-01T19:28:58.805Z,3.20
2022-11-01T19:31:39.097Z,3.17
2022-11-01T19:34:25.243Z,3.00
2022-11-01T19:36:53.161Z,3.30
2022-11-01T19:39:32.408Z,3.20
2022-11-01T19:42:26.882Z,3.30
2022-11-01T19:45:25.966Z,2.67
2022-11-01T19:47:53.488Z,2.90
2022-11-01T19:50:44.505Z,2.40
2022-11-01T19:53:40.326Z,3.40
2022-11-01T19:56:13.568Z,2.50
2022-11-01T19:58:46.092Z,2.83
2022-11-01T20:01:43.097Z,2.60
2022-11-01T20:04:17.438Z,2.90
2022-11-01T20:06:48.638Z,2.63
2022-11-01T20:09:29.741Z,2.90
2022-11-01T20:11:57.520Z,2.63
2022-11-01T20:14:26.847Z,2.70
2022-11-01T20:16:54.372Z,3.50
2022-11-01T20:19:21.882Z,3.40
2022-11-01T20:21:49.425Z,2.67
2022-11-01T20:24:17.141Z,3.17
2022-11-01T20:26:44.527Z,2.67
2022-11-01T20:29:12.203Z,2.70
2022-11-01T20:31:39.803Z,2.70
2022-11-01T20:34:09.341Z,2.57
2022-11-01T20:36:36.843Z,3.17
2022-11-01T20:39:04.877Z,3.20
2022-11-01T20:41:32.426Z,3.03
2022-11-01T20:44:00.580Z,4.00
2022-11-01T20:46:28.489Z,3.23
2022-11-01T20:48:56.235Z,3.20
2022-11-01T20:51:23.983Z,2.50
2022-11-01T20:53:53.828Z,3.40
2022-11-01T20:56:23.091Z,2.67
2022-11-01T20:58:50.489Z,3.40
2022-11-01T21:01:20.220Z,2.60
2022-11-01T21:03:47.814Z,2.47
2022-11-01T21:06:19.061Z,2.50
2022-11-01T21:08:48.260Z,2.93
2022-11-01T21:11:44.727Z,2.60
2022-11-01T21:14:22.607Z,2.53
2022-11-01T21:16:51.070Z,2.77
2022-11-01T21:19:23.535Z,2.50
2022-11-01T21:21:58.698Z,3.43
2022-11-01T21:24:35.532Z,3.33
2022-11-01T21:27:26.275Z,3.30
2022-11-01T21:30:14.201Z,2.27
2022-11-01T21:32:45.107Z,2.80
2022-11-01T21:35:39.078Z,2.50
2022-11-01T21:38:37.112Z,2.80
2022-11-01T21:41:31.712Z,2.70
2022-11-01T21:44:39.815Z,2.50
2022-11-01T21:47:16.433Z,2.20
2022-11-01T21:49:43.784Z,2.40
2022-11-01T21:54:40.714Z,2.33
2022-11-01T21:57:10.711Z,2.50
2022-11-01T21:59:38.689Z,2.10
2022-11-01T22:02:09.770Z,2.20
2022-11-01T22:04:37.934Z,2.00
2022-11-01T22:07:07.990Z,2.17
2022-11-01T22:09:36.065Z,2.40
2022-11-01T22:12:04.028Z,2.43
2022-11-01T22:14:32.146Z,2.43
2022-11-01T22:17:01.070Z,2.40
2022-11-01T22:19:28.668Z,2.40
2022-11-01T22:21:59.354Z,2.30
2022-11-01T22:24:30.215Z,2.13
2022-11-01T22:27:02.193Z,2.30
2022-11-01T22:29:29.645Z,2.73
2022-11-01T22:35:04.485Z,2.03
2022-11-01T22:37:35.656Z,2.57
2022-11-01T22:40:13.823Z,2.27
2022-11-01T22:42:42.018Z,2.73
2022-11-01T22:45:15.638Z,2.27
2022-11-01T22:47:45.885Z,2.00
2022-11-01T22:50:26.013Z,2.20
2022-11-01T22:52:53.513Z,2.00
2022-11-01T22:55:26.052Z,2.30
2022-11-01T22:58:25.331Z,2.00
2022-11-01T23:00:53.927Z,2.00
2022-11-01T23:03:28.767Z,2.40
2022-11-01T23:06:00.355Z,2.50
2022-11-01T23:08:33.617Z,2.20
2022-11-01T23:11:03.447Z,2.17
2022-11-01T23:13:55.637Z,2.00
2022-11-01T23:16:25.735Z,2.03
2022-11-01T23:18:57.703Z,1.70
2022-11-01T23:21:26.857Z,2.30
2022-11-01T23:23:55.508Z,2.20
2022-11-01T23:26:24.030Z,2.00
2022-11-01T23:28:57.716Z,2.23
2022-11-01T23:31:29.039Z,1.90
2022-11-01T23:33:56.793Z,2.07
2022-11-01T23:36:38.211Z,2.33
2022-11-01T23:39:11.672Z,2.53
2022-11-01T23:41:50.624Z,2.30
2022-11-01T23:44:36.171Z,2.03
2022-11-01T23:47:09.939Z,1.60
2022-11-01T23:49:37.396Z,2.10
2022-11-01T23:52:46.012Z,2.07
2022-11-01T23:55:38.821Z,2.30
2022-11-01T23:58:10.887Z,2.00
